sensor_id;sensor_type;location;lat;lon;timestamp;P1;durP1;ratioP1;P2;durP2;ratioP2
11957;SDS011;6039;52.576;13.348;2023-05-07T00:04:43;10.23;;;7.47;;
11957;SDS011;6039;52.576;13.348;2023-05-07T00:09:49;11.10;;;7.47;;
11957;SDS011;6039;52.576;13.348;2023-05-07T00:14:53;18.33;;;7.77;;
11957;SDS011;6039;52.576;13.348;2023-05-07T00:19:57;11.33;;;7.30;;
11957;SDS011;6039;52.576;13.348;2023-05-07T00:25:04;12.30;;;8.07;;
11957;SDS011;6039;52.576;13.348;2023-05-07T00:30:10;10.87;;;7.03;;
11957;SDS011;6039;52.576;13.348;2023-05-07T00:35:15;10.63;;;7.73;;
11957;SDS011;6039;52.576;13.348;2023-05-07T00:40:22;8.63;;;6.57;;
11957;SDS011;6039;52.576;13.348;2023-05-07T00:45:26;13.77;;;7.63;;
11957;SDS011;6039;52.576;13.348;2023-05-07T00:50:31;11.10;;;7.50;;
11957;SDS011;6039;52.576;13.348;2023-05-07T00:55:38;11.87;;;7.33;;
11957;SDS011;6039;52.576;13.348;2023-05-07T01:00:42;10.43;;;7.17;;
11957;SDS011;6039;52.576;13.348;2023-05-07T01:05:46;10.93;;;7.50;;
11957;SDS011;6039;52.576;13.348;2023-05-07T01:10:54;9.67;;;6.77;;
11957;SDS011;6039;52.576;13.348;2023-05-07T01:15:58;10.90;;;7.63;;
11957;SDS011;6039;52.576;13.348;2023-05-07T01:21:03;10.80;;;7.60;;
11957;SDS011;6039;52.576;13.348;2023-05-07T01:26:10;10.47;;;7.00;;
11957;SDS011;6039;52.576;13.348;2023-05-07T01:31:15;11.77;;;7.70;;
11957;SDS011;6039;52.576;13.348;2023-05-07T01:36:20;11.47;;;7.07;;
11957;SDS011;6039;52.576;13.348;2023-05-07T01:41:28;8.70;;;6.83;;
11957;SDS011;6039;52.576;13.348;2023-05-07T01:46:32;11.67;;;7.07;;
11957;SDS011;6039;52.576;13.348;2023-05-07T01:51:37;9.73;;;7.03;;
11957;SDS011;6039;52.576;13.348;2023-05-07T01:56:43;8.97;;;6.80;;
11957;SDS011;6039;52.576;13.348;2023-05-07T02:01:48;10.03;;;6.87;;
11957;SDS011;6039;52.576;13.348;2023-05-07T02:06:52;8.90;;;6.17;;
11957;SDS011;6039;52.576;13.348;2023-05-07T02:11:58;10.27;;;7.13;;
11957;SDS011;6039;52.576;13.348;2023-05-07T02:17:02;11.03;;;7.20;;
11957;SDS011;6039;52.576;13.348;2023-05-07T02:22:06;9.70;;;6.83;;
11957;SDS011;6039;52.576;13.348;2023-05-07T02:27:13;10.87;;;6.50;;
11957;SDS011;6039;52.576;13.348;2023-05-07T02:32:17;9.93;;;7.07;;
11957;SDS011;6039;52.576;13.348;2023-05-07T02:37:21;9.27;;;6.63;;
11957;SDS011;6039;52.576;13.348;2023-05-07T02:42:27;8.80;;;6.37;;
11957;SDS011;6039;52.576;13.348;2023-05-07T02:47:31;8.70;;;6.10;;
11957;SDS011;6039;52.576;13.348;2023-05-07T02:52:35;8.83;;;7.00;;
11957;SDS011;6039;52.576;13.348;2023-05-07T02:57:42;10.17;;;6.43;;
11957;SDS011;6039;52.576;13.348;2023-05-07T03:02:46;9.57;;;6.27;;
11957;SDS011;6039;52.576;13.348;2023-05-07T03:07:50;10.13;;;6.17;;
11957;SDS011;6039;52.576;13.348;2023-05-07T03:12:57;8.30;;;5.93;;
11957;SDS011;6039;52.576;13.348;2023-05-07T03:18:01;9.17;;;5.80;;
11957;SDS011;6039;52.576;13.348;2023-05-07T03:23:05;7.57;;;5.57;;
11957;SDS011;6039;52.576;13.348;2023-05-07T03:28:11;7.70;;;5.20;;
11957;SDS011;6039;52.576;13.348;2023-05-07T03:33:15;9.13;;;5.73;;
11957;SDS011;6039;52.576;13.348;2023-05-07T03:38:19;7.03;;;5.60;;
11957;SDS011;6039;52.576;13.348;2023-05-07T03:43:26;10.33;;;5.30;;
11957;SDS011;6039;52.576;13.348;2023-05-07T03:48:30;8.70;;;5.40;;
11957;SDS011;6039;52.576;13.348;2023-05-07T03:53:34;8.97;;;5.47;;
11957;SDS011;6039;52.576;13.348;2023-05-07T03:58:40;7.17;;;5.47;;
11957;SDS011;6039;52.576;13.348;2023-05-07T04:03:44;7.07;;;5.37;;
11957;SDS011;6039;52.576;13.348;2023-05-07T04:08:48;7.47;;;5.57;;
11957;SDS011;6039;52.576;13.348;2023-05-07T04:13:55;7.20;;;5.53;;
11957;SDS011;6039;52.576;13.348;2023-05-07T04:18:59;9.83;;;5.70;;
11957;SDS011;6039;52.576;13.348;2023-05-07T04:24:03;10.13;;;5.80;;
11957;SDS011;6039;52.576;13.348;2023-05-07T04:29:10;6.97;;;5.60;;
11957;SDS011;6039;52.576;13.348;2023-05-07T04:34:14;8.67;;;5.53;;
11957;SDS011;6039;52.576;13.348;2023-05-07T04:39:18;9.27;;;5.60;;
11957;SDS011;6039;52.576;13.348;2023-05-07T04:44:25;7.77;;;5.10;;
11957;SDS011;6039;52.576;13.348;2023-05-07T04:49:31;6.70;;;5.03;;
11957;SDS011;6039;52.576;13.348;2023-05-07T04:54:34;6.83;;;5.10;;
11957;SDS011;6039;52.576;13.348;2023-05-07T04:59:41;6.23;;;4.90;;
11957;SDS011;6039;52.576;13.348;2023-05-07T05:04:45;7.23;;;5.00;;
11957;SDS011;6039;52.576;13.348;2023-05-07T05:09:49;7.20;;;5.00;;
11957;SDS011;6039;52.576;13.348;2023-05-07T05:14:56;6.83;;;4.70;;
11957;SDS011;6039;52.576;13.348;2023-05-07T05:20:00;6.37;;;4.67;;
11957;SDS011;6039;52.576;13.348;2023-05-07T05:25:04;8.03;;;4.90;;
11957;SDS011;6039;52.576;13.348;2023-05-07T05:30:12;6.57;;;5.03;;
11957;SDS011;6039;52.576;13.348;2023-05-07T05:35:16;6.77;;;4.80;;
11957;SDS011;6039;52.576;13.348;2023-05-07T05:40:20;6.57;;;4.57;;
11957;SDS011;6039;52.576;13.348;2023-05-07T05:45:26;6.30;;;4.87;;
11957;SDS011;6039;52.576;13.348;2023-05-07T05:50:31;6.27;;;4.53;;
11957;SDS011;6039;52.576;13.348;2023-05-07T05:55:35;5.63;;;4.43;;
11957;SDS011;6039;52.576;13.348;2023-05-07T06:00:42;6.13;;;4.77;;
11957;SDS011;6039;52.576;13.348;2023-05-07T06:05:48;9.40;;;5.53;;
11957;SDS011;6039;52.576;13.348;2023-05-07T06:10:52;6.70;;;4.93;;
11957;SDS011;6039;52.576;13.348;2023-05-07T06:15:58;6.00;;;4.50;;
11957;SDS011;6039;52.576;13.348;2023-05-07T06:21:03;6.40;;;4.77;;
11957;SDS011;6039;52.576;13.348;2023-05-07T06:26:07;6.90;;;4.60;;
11957;SDS011;6039;52.576;13.348;2023-05-07T06:31:14;5.97;;;4.73;;
11957;SDS011;6039;52.576;13.348;2023-05-07T06:36:20;6.40;;;4.90;;
11957;SDS011;6039;52.576;13.348;2023-05-07T06:41:24;6.00;;;4.53;;
11957;SDS011;6039;52.576;13.348;2023-05-07T06:46:31;5.70;;;4.47;;
11957;SDS011;6039;52.576;13.348;2023-05-07T06:51:35;6.20;;;4.53;;
11957;SDS011;6039;52.576;13.348;2023-05-07T06:56:39;6.13;;;4.47;;
11957;SDS011;6039;52.576;13.348;2023-05-07T07:01:45;7.00;;;4.20;;
11957;SDS011;6039;52.576;13.348;2023-05-07T07:06:49;5.90;;;4.23;;
11957;SDS011;6039;52.576;13.348;2023-05-07T07:11:56;5.90;;;4.13;;
11957;SDS011;6039;52.576;13.348;2023-05-07T07:17:03;8.50;;;4.47;;
11957;SDS011;6039;52.576;13.348;2023-05-07T07:22:07;4.70;;;3.70;;
11957;SDS011;6039;52.576;13.348;2023-05-07T07:27:11;5.47;;;3.30;;
11957;SDS011;6039;52.576;13.348;2023-05-07T07:32:17;3.90;;;3.07;;
11957;SDS011;6039;52.576;13.348;2023-05-07T07:37:21;3.90;;;3.50;;
11957;SDS011;6039;52.576;13.348;2023-05-07T07:42:25;5.00;;;3.63;;
11957;SDS011;6039;52.576;13.348;2023-05-07T07:47:32;4.27;;;3.47;;
11957;SDS011;6039;52.576;13.348;2023-05-07T07:52:36;6.40;;;2.80;;
11957;SDS011;6039;52.576;13.348;2023-05-07T07:57:40;4.07;;;2.93;;
11957;SDS011;6039;52.576;13.348;2023-05-07T08:02:47;3.40;;;3.10;;
11957;SDS011;6039;52.576;13.348;2023-05-07T08:07:51;3.15;;;2.60;;
11957;SDS011;6039;52.576;13.348;2023-05-07T08:12:55;2.93;;;2.47;;
11957;SDS011;6039;52.576;13.348;2023-05-07T08:18:02;3.20;;;2.33;;
11957;SDS011;6039;52.576;13.348;2023-05-07T08:23:06;3.00;;;2.70;;
11957;SDS011;6039;52.576;13.348;2023-05-07T08:28:10;2.73;;;2.30;;
11957;SDS011;6039;52.576;13.348;2023-05-07T08:33:17;2.70;;;2.05;;
11957;SDS011;6039;52.576;13.348;2023-05-07T08:38:21;3.17;;;2.40;;
11957;SDS011;6039;52.576;13.348;2023-05-07T08:43:26;2.43;;;2.23;;
11957;SDS011;6039;52.576;13.348;2023-05-07T08:48:33;2.27;;;2.07;;
11957;SDS011;6039;52.576;13.348;2023-05-07T08:53:38;4.17;;;2.63;;
11957;SDS011;6039;52.576;13.348;2023-05-07T08:58:44;2.87;;;2.47;;
11957;SDS011;6039;52.576;13.348;2023-05-07T09:03:50;3.33;;;2.27;;
11957;SDS011;6039;52.576;13.348;2023-05-07T09:08:55;3.57;;;2.47;;
11957;SDS011;6039;52.576;13.348;2023-05-07T09:14:01;2.43;;;2.00;;
11957;SDS011;6039;52.576;13.348;2023-05-07T09:19:07;2.77;;;2.17;;
11957;SDS011;6039;52.576;13.348;2023-05-07T09:24:11;2.63;;;2.10;;
11957;SDS011;6039;52.576;13.348;2023-05-07T09:29:18;2.67;;;2.20;;
11957;SDS011;6039;52.576;13.348;2023-05-07T09:34:25;3.87;;;2.53;;
11957;SDS011;6039;52.576;13.348;2023-05-07T09:39:38;2.67;;;2.20;;
11957;SDS011;6039;52.576;13.348;2023-05-07T09:44:43;4.70;;;2.00;;
11957;SDS011;6039;52.576;13.348;2023-05-07T09:49:49;2.17;;;1.97;;
11957;SDS011;6039;52.576;13.348;2023-05-07T09:54:54;2.20;;;2.00;;
11957;SDS011;6039;52.576;13.348;2023-05-07T09:59:59;2.43;;;1.63;;
11957;SDS011;6039;52.576;13.348;2023-05-07T10:05:08;2.20;;;1.87;;
11957;SDS011;6039;52.576;13.348;2023-05-07T10:10:12;4.87;;;2.00;;
11957;SDS011;6039;52.576;13.348;2023-05-07T10:15:18;2.10;;;1.70;;
11957;SDS011;6039;52.576;13.348;2023-05-07T10:20:24;2.10;;;1.80;;
11957;SDS011;6039;52.576;13.348;2023-05-07T10:25:30;4.20;;;2.10;;
11957;SDS011;6039;52.576;13.348;2023-05-07T10:30:36;2.73;;;1.70;;
11957;SDS011;6039;52.576;13.348;2023-05-07T10:35:55;1.90;;;1.70;;
11957;SDS011;6039;52.576;13.348;2023-05-07T10:41:01;3.13;;;1.90;;
11957;SDS011;6039;52.576;13.348;2023-05-07T10:46:09;1.90;;;1.63;;
11957;SDS011;6039;52.576;13.348;2023-05-07T10:51:22;1.90;;;1.70;;
11957;SDS011;6039;52.576;13.348;2023-05-07T10:56:26;2.73;;;1.87;;
11957;SDS011;6039;52.576;13.348;2023-05-07T11:17:53;2.37;;;1.80;;
11957;SDS011;6039;52.576;13.348;2023-05-07T11:22:58;2.17;;;1.60;;
11957;SDS011;6039;52.576;13.348;2023-05-07T11:28:08;1.90;;;1.60;;
11957;SDS011;6039;52.576;13.348;2023-05-07T11:33:13;2.13;;;1.60;;
11957;SDS011;6039;52.576;13.348;2023-05-07T11:38:20;1.70;;;1.60;;
11957;SDS011;6039;52.576;13.348;2023-05-07T11:43:27;3.10;;;1.70;;
11957;SDS011;6039;52.576;13.348;2023-05-07T11:48:31;2.27;;;1.63;;
11957;SDS011;6039;52.576;13.348;2023-05-07T11:53:36;2.10;;;1.50;;
11957;SDS011;6039;52.576;13.348;2023-05-07T11:58:44;2.00;;;1.60;;
11957;SDS011;6039;52.576;13.348;2023-05-07T12:03:48;2.07;;;1.60;;
11957;SDS011;6039;52.576;13.348;2023-05-07T12:08:52;1.53;;;1.43;;
11957;SDS011;6039;52.576;13.348;2023-05-07T12:13:59;1.83;;;1.53;;
11957;SDS011;6039;52.576;13.348;2023-05-07T12:19:03;1.90;;;1.50;;
11957;SDS011;6039;52.576;13.348;2023-05-07T12:24:08;2.00;;;1.50;;
11957;SDS011;6039;52.576;13.348;2023-05-07T12:29:15;2.00;;;1.67;;
11957;SDS011;6039;52.576;13.348;2023-05-07T12:34:19;2.13;;;1.67;;
11957;SDS011;6039;52.576;13.348;2023-05-07T12:39:24;3.50;;;1.83;;
11957;SDS011;6039;52.576;13.348;2023-05-07T12:44:32;2.17;;;1.60;;
11957;SDS011;6039;52.576;13.348;2023-05-07T12:49:37;1.40;;;1.30;;
11957;SDS011;6039;52.576;13.348;2023-05-07T12:54:41;2.00;;;1.80;;
11957;SDS011;6039;52.576;13.348;2023-05-07T12:59:47;1.90;;;1.40;;
11957;SDS011;6039;52.576;13.348;2023-05-07T13:04:51;2.87;;;1.50;;
11957;SDS011;6039;52.576;13.348;2023-05-07T13:09:55;2.90;;;1.27;;
11957;SDS011;6039;52.576;13.348;2023-05-07T13:15:02;2.27;;;1.43;;
11957;SDS011;6039;52.576;13.348;2023-05-07T13:20:08;1.83;;;1.50;;
11957;SDS011;6039;52.576;13.348;2023-05-07T13:25:13;1.30;;;1.20;;
11957;SDS011;6039;52.576;13.348;2023-05-07T13:30:19;2.17;;;1.70;;
11957;SDS011;6039;52.576;13.348;2023-05-07T13:35:23;2.30;;;1.43;;
11957;SDS011;6039;52.576;13.348;2023-05-07T13:40:28;1.40;;;1.17;;
11957;SDS011;6039;52.576;13.348;2023-05-07T13:45:34;1.63;;;1.30;;
11957;SDS011;6039;52.576;13.348;2023-05-07T13:50:38;2.73;;;1.53;;
11957;SDS011;6039;52.576;13.348;2023-05-07T13:55:42;2.40;;;1.50;;
11957;SDS011;6039;52.576;13.348;2023-05-07T14:00:49;2.80;;;1.43;;
11957;SDS011;6039;52.576;13.348;2023-05-07T14:05:53;1.73;;;1.43;;
11957;SDS011;6039;52.576;13.348;2023-05-07T14:10:57;2.33;;;1.40;;
11957;SDS011;6039;52.576;13.348;2023-05-07T14:16:04;1.57;;;1.47;;
11957;SDS011;6039;52.576;13.348;2023-05-07T14:21:08;1.70;;;1.40;;
11957;SDS011;6039;52.576;13.348;2023-05-07T14:26:13;2.60;;;1.70;;
11957;SDS011;6039;52.576;13.348;2023-05-07T14:31:19;1.60;;;1.50;;
11957;SDS011;6039;52.576;13.348;2023-05-07T14:36:23;1.53;;;1.40;;
11957;SDS011;6039;52.576;13.348;2023-05-07T14:41:30;1.73;;;1.60;;
11957;SDS011;6039;52.576;13.348;2023-05-07T14:46:37;2.87;;;1.80;;
11957;SDS011;6039;52.576;13.348;2023-05-07T14:51:41;1.77;;;1.40;;
11957;SDS011;6039;52.576;13.348;2023-05-07T14:56:45;3.63;;;1.33;;
11957;SDS011;6039;52.576;13.348;2023-05-07T15:01:52;2.80;;;1.60;;
11957;SDS011;6039;52.576;13.348;2023-05-07T15:06:56;2.13;;;1.40;;
11957;SDS011;6039;52.576;13.348;2023-05-07T15:12:00;1.83;;;1.60;;
11957;SDS011;6039;52.576;13.348;2023-05-07T15:17:06;1.43;;;1.30;;
11957;SDS011;6039;52.576;13.348;2023-05-07T15:22:10;1.90;;;1.50;;
11957;SDS011;6039;52.576;13.348;2023-05-07T15:27:15;2.00;;;1.50;;
11957;SDS011;6039;52.576;13.348;2023-05-07T15:32:22;1.50;;;1.40;;
11957;SDS011;6039;52.576;13.348;2023-05-07T15:37:26;1.97;;;1.50;;
11957;SDS011;6039;52.576;13.348;2023-05-07T15:42:30;1.60;;;1.20;;
11957;SDS011;6039;52.576;13.348;2023-05-07T15:47:37;2.13;;;1.30;;
11957;SDS011;6039;52.576;13.348;2023-05-07T15:52:41;1.47;;;1.20;;
11957;SDS011;6039;52.576;13.348;2023-05-07T15:57:46;2.03;;;1.53;;
11957;SDS011;6039;52.576;13.348;2023-05-07T16:02:52;2.13;;;1.67;;
11957;SDS011;6039;52.576;13.348;2023-05-07T16:07:56;1.73;;;1.40;;
11957;SDS011;6039;52.576;13.348;2023-05-07T16:13:00;2.23;;;1.47;;
11957;SDS011;6039;52.576;13.348;2023-05-07T16:18:07;1.50;;;1.20;;
11957;SDS011;6039;52.576;13.348;2023-05-07T16:23:15;1.97;;;1.43;;
11957;SDS011;6039;52.576;13.348;2023-05-07T16:28:19;1.83;;;1.63;;
11957;SDS011;6039;52.576;13.348;2023-05-07T16:33:25;3.20;;;1.30;;
11957;SDS011;6039;52.576;13.348;2023-05-07T16:38:29;2.00;;;1.80;;
11957;SDS011;6039;52.576;13.348;2023-05-07T16:43:34;2.53;;;1.50;;
11957;SDS011;6039;52.576;13.348;2023-05-07T16:48:40;1.80;;;1.50;;
11957;SDS011;6039;52.576;13.348;2023-05-07T16:53:45;1.93;;;1.60;;
11957;SDS011;6039;52.576;13.348;2023-05-07T16:58:49;2.20;;;2.00;;
11957;SDS011;6039;52.576;13.348;2023-05-07T17:03:55;1.67;;;1.40;;
11957;SDS011;6039;52.576;13.348;2023-05-07T17:09:00;1.77;;;1.47;;
11957;SDS011;6039;52.576;13.348;2023-05-07T17:14:04;4.07;;;1.77;;
11957;SDS011;6039;52.576;13.348;2023-05-07T17:19:10;1.83;;;1.70;;
11957;SDS011;6039;52.576;13.348;2023-05-07T17:24:14;2.40;;;1.47;;
11957;SDS011;6039;52.576;13.348;2023-05-07T17:29:19;1.60;;;1.50;;
11957;SDS011;6039;52.576;13.348;2023-05-07T17:34:25;2.50;;;1.73;;
11957;SDS011;6039;52.576;13.348;2023-05-07T17:39:31;1.93;;;1.60;;
11957;SDS011;6039;52.576;13.348;2023-05-07T17:44:35;1.50;;;1.40;;
11957;SDS011;6039;52.576;13.348;2023-05-07T17:49:42;2.30;;;1.40;;
11957;SDS011;6039;52.576;13.348;2023-05-07T17:54:46;1.90;;;1.60;;
11957;SDS011;6039;52.576;13.348;2023-05-07T17:59:50;2.00;;;1.73;;
11957;SDS011;6039;52.576;13.348;2023-05-07T18:04:56;1.93;;;1.73;;
11957;SDS011;6039;52.576;13.348;2023-05-07T18:10:01;1.40;;;1.30;;
11957;SDS011;6039;52.576;13.348;2023-05-07T18:15:06;1.57;;;1.47;;
11957;SDS011;6039;52.576;13.348;2023-05-07T18:20:13;1.40;;;1.30;;
11957;SDS011;6039;52.576;13.348;2023-05-07T18:25:17;1.43;;;1.33;;
11957;SDS011;6039;52.576;13.348;2023-05-07T18:30:22;1.60;;;1.50;;
11957;SDS011;6039;52.576;13.348;2023-05-07T18:35:28;2.00;;;1.50;;
11957;SDS011;6039;52.576;13.348;2023-05-07T18:40:34;1.67;;;1.57;;
11957;SDS011;6039;52.576;13.348;2023-05-07T18:45:43;1.83;;;1.63;;
11957;SDS011;6039;52.576;13.348;2023-05-07T18:50:52;2.00;;;1.80;;
11957;SDS011;6039;52.576;13.348;2023-05-07T18:55:56;1.67;;;1.53;;
11957;SDS011;6039;52.576;13.348;2023-05-07T19:01:00;2.23;;;1.50;;
11957;SDS011;6039;52.576;13.348;2023-05-07T19:06:09;1.67;;;1.57;;
11957;SDS011;6039;52.576;13.348;2023-05-07T19:11:13;1.93;;;1.40;;
11957;SDS011;6039;52.576;13.348;2023-05-07T19:16:17;2.00;;;1.70;;
11957;SDS011;6039;52.576;13.348;2023-05-07T19:21:24;1.43;;;1.33;;
11957;SDS011;6039;52.576;13.348;2023-05-07T19:26:28;2.07;;;1.60;;
11957;SDS011;6039;52.576;13.348;2023-05-07T19:31:32;2.50;;;2.00;;
11957;SDS011;6039;52.576;13.348;2023-05-07T19:36:38;3.33;;;1.80;;
11957;SDS011;6039;52.576;13.348;2023-05-07T19:41:42;2.20;;;1.87;;
11957;SDS011;6039;52.576;13.348;2023-05-07T19:46:46;2.73;;;2.07;;
11957;SDS011;6039;52.576;13.348;2023-05-07T19:51:54;2.53;;;1.90;;
11957;SDS011;6039;52.576;13.348;2023-05-07T19:56:58;2.23;;;1.80;;
11957;SDS011;6039;52.576;13.348;2023-05-07T20:02:02;2.23;;;1.70;;
11957;SDS011;6039;52.576;13.348;2023-05-07T20:07:09;3.10;;;1.97;;
11957;SDS011;6039;52.576;13.348;2023-05-07T20:12:13;2.33;;;2.00;;
11957;SDS011;6039;52.576;13.348;2023-05-07T20:17:17;2.07;;;1.70;;
11957;SDS011;6039;52.576;13.348;2023-05-07T20:22:23;2.90;;;2.10;;
11957;SDS011;6039;52.576;13.348;2023-05-07T20:27:27;2.37;;;1.83;;
11957;SDS011;6039;52.576;13.348;2023-05-07T20:32:33;2.27;;;1.87;;
11957;SDS011;6039;52.576;13.348;2023-05-07T20:37:40;3.83;;;2.07;;
11957;SDS011;6039;52.576;13.348;2023-05-07T20:42:44;3.93;;;2.50;;
11957;SDS011;6039;52.576;13.348;2023-05-07T20:47:48;4.13;;;2.90;;
11957;SDS011;6039;52.576;13.348;2023-05-07T20:52:54;3.67;;;2.90;;
11957;SDS011;6039;52.576;13.348;2023-05-07T20:57:58;2.90;;;2.40;;
11957;SDS011;6039;52.576;13.348;2023-05-07T21:03:02;3.40;;;2.83;;
11957;SDS011;6039;52.576;13.348;2023-05-07T21:08:09;4.10;;;2.77;;
11957;SDS011;6039;52.576;13.348;2023-05-07T21:13:13;3.93;;;3.30;;
11957;SDS011;6039;52.576;13.348;2023-05-07T21:18:17;3.40;;;2.70;;
11957;SDS011;6039;52.576;13.348;2023-05-07T21:23:24;3.30;;;2.87;;
11957;SDS011;6039;52.576;13.348;2023-05-07T21:28:28;5.43;;;3.10;;
11957;SDS011;6039;52.576;13.348;2023-05-07T21:33:32;3.53;;;2.50;;
11957;SDS011;6039;52.576;13.348;2023-05-07T21:38:39;4.57;;;3.40;;
11957;SDS011;6039;52.576;13.348;2023-05-07T21:43:44;3.20;;;2.90;;
11957;SDS011;6039;52.576;13.348;2023-05-07T21:48:48;4.07;;;3.60;;
11957;SDS011;6039;52.576;13.348;2023-05-07T21:53:54;4.57;;;3.43;;
11957;SDS011;6039;52.576;13.348;2023-05-07T21:58:58;5.03;;;3.73;;
11957;SDS011;6039;52.576;13.348;2023-05-07T22:04:02;5.10;;;3.47;;
11957;SDS011;6039;52.576;13.348;2023-05-07T22:09:09;5.03;;;3.83;;
11957;SDS011;6039;52.576;13.348;2023-05-07T22:14:13;5.47;;;3.60;;
11957;SDS011;6039;52.576;13.348;2023-05-07T22:19:17;3.93;;;3.33;;
11957;SDS011;6039;52.576;13.348;2023-05-07T22:24:23;4.03;;;3.30;;
11957;SDS011;6039;52.576;13.348;2023-05-07T22:29:27;5.30;;;3.80;;
11957;SDS011;6039;52.576;13.348;2023-05-07T22:34:31;5.00;;;3.60;;
11957;SDS011;6039;52.576;13.348;2023-05-07T22:39:38;5.23;;;3.77;;
11957;SDS011;6039;52.576;13.348;2023-05-07T22:44:42;4.00;;;3.17;;
11957;SDS011;6039;52.576;13.348;2023-05-07T22:49:46;5.43;;;3.50;;
11957;SDS011;6039;52.576;13.348;2023-05-07T22:54:52;3.70;;;3.30;;
11957;SDS011;6039;52.576;13.348;2023-05-07T22:59:56;4.97;;;3.90;;
11957;SDS011;6039;52.576;13.348;2023-05-07T23:05:00;4.67;;;3.27;;
11957;SDS011;6039;52.576;13.348;2023-05-07T23:10:07;5.90;;;3.90;;
11957;SDS011;6039;52.576;13.348;2023-05-07T23:15:11;3.87;;;2.97;;
11957;SDS011;6039;52.576;13.348;2023-05-07T23:20:15;4.93;;;3.23;;
11957;SDS011;6039;52.576;13.348;2023-05-07T23:25:22;5.80;;;3.70;;
11957;SDS011;6039;52.576;13.348;2023-05-07T23:30:27;4.90;;;3.30;;
11957;SDS011;6039;52.576;13.348;2023-05-07T23:35:31;5.27;;;3.93;;
11957;SDS011;6039;52.576;13.348;2023-05-07T23:40:37;5.30;;;3.47;;
11957;SDS011;6039;52.576;13.348;2023-05-07T23:45:41;3.47;;;3.13;;
11957;SDS011;6039;52.576;13.348;2023-05-07T23:50:45;5.20;;;3.80;;
11957;SDS011;6039;52.576;13.348;2023-05-07T23:55:52;4.60;;;3.57;;
